sensor_id;sensor_type;location;lat;lon;timestamp;P1;durP1;ratioP1;P2;durP2;ratioP2
69334;SDS011;56477;52.742;15.242;2024-03-02T00:00:14;28.83;;;15.27;;
69334;SDS011;56477;52.742;15.242;2024-03-02T00:03:00;27.58;;;14.90;;
69334;SDS011;56477;52.742;15.242;2024-03-02T00:05:26;30.58;;;13.85;;
69334;SDS011;56477;52.742;15.242;2024-03-02T00:07:53;29.40;;;14.60;;
69334;SDS011;56477;52.742;15.242;2024-03-02T00:10:25;26.80;;;12.77;;
69334;SDS011;56477;52.742;15.242;2024-03-02T00:12:56;29.63;;;14.00;;
69334;SDS011;56477;52.742;15.242;2024-03-02T00:18:04;30.98;;;13.82;;
69334;SDS011;56477;52.742;15.242;2024-03-02T00:20:30;26.97;;;12.67;;
69334;SDS011;56477;52.742;15.242;2024-03-02T00:23:02;30.98;;;13.38;;
69334;SDS011;56477;52.742;15.242;2024-03-02T00:25:49;29.20;;;13.52;;
69334;SDS011;56477;52.742;15.242;2024-03-02T00:33:41;25.33;;;13.23;;
69334;SDS011;56477;52.742;15.242;2024-03-02T00:36:09;25.42;;;12.98;;
69334;SDS011;56477;52.742;15.242;2024-03-02T00:38:40;25.98;;;13.10;;
69334;SDS011;56477;52.742;15.242;2024-03-02T00:41:08;27.25;;;12.50;;
69334;SDS011;56477;52.742;15.242;2024-03-02T00:43:42;27.45;;;12.93;;
69334;SDS011;56477;52.742;15.242;2024-03-02T00:46:35;25.63;;;12.53;;
69334;SDS011;56477;52.742;15.242;2024-03-02T00:49:05;28.25;;;13.27;;
69334;SDS011;56477;52.742;15.242;2024-03-02T00:51:37;26.83;;;13.40;;
69334;SDS011;56477;52.742;15.242;2024-03-02T00:54:05;26.88;;;13.95;;
69334;SDS011;56477;52.742;15.242;2024-03-02T00:56:33;29.52;;;13.52;;
69334;SDS011;56477;52.742;15.242;2024-03-02T00:59:00;26.53;;;12.20;;
69334;SDS011;56477;52.742;15.242;2024-03-02T01:01:26;24.88;;;12.00;;
69334;SDS011;56477;52.742;15.242;2024-03-02T01:03:52;26.98;;;12.73;;
69334;SDS011;56477;52.742;15.242;2024-03-02T01:06:18;28.13;;;13.10;;
69334;SDS011;56477;52.742;15.242;2024-03-02T01:08:44;26.90;;;12.90;;
69334;SDS011;56477;52.742;15.242;2024-03-02T01:11:11;26.93;;;12.60;;
69334;SDS011;56477;52.742;15.242;2024-03-02T01:13:37;25.85;;;13.35;;
69334;SDS011;56477;52.742;15.242;2024-03-02T01:16:03;25.35;;;12.15;;
69334;SDS011;56477;52.742;15.242;2024-03-02T01:18:29;27.08;;;13.10;;
69334;SDS011;56477;52.742;15.242;2024-03-02T01:20:56;28.57;;;13.17;;
69334;SDS011;56477;52.742;15.242;2024-03-02T01:23:22;26.67;;;13.18;;
69334;SDS011;56477;52.742;15.242;2024-03-02T01:25:49;27.33;;;13.27;;
69334;SDS011;56477;52.742;15.242;2024-03-02T01:28:16;24.42;;;12.55;;
69334;SDS011;56477;52.742;15.242;2024-03-02T01:30:42;29.03;;;13.57;;
69334;SDS011;56477;52.742;15.242;2024-03-02T01:33:08;28.65;;;14.05;;
69334;SDS011;56477;52.742;15.242;2024-03-02T01:35:34;30.15;;;14.55;;
69334;SDS011;56477;52.742;15.242;2024-03-02T01:38:00;26.23;;;12.80;;
69334;SDS011;56477;52.742;15.242;2024-03-02T01:40:26;26.98;;;13.93;;
69334;SDS011;56477;52.742;15.242;2024-03-02T01:42:52;32.13;;;14.13;;
69334;SDS011;56477;52.742;15.242;2024-03-02T01:45:28;32.10;;;14.13;;
69334;SDS011;56477;52.742;15.242;2024-03-02T01:47:54;28.77;;;14.45;;
69334;SDS011;56477;52.742;15.242;2024-03-02T01:50:27;32.72;;;14.55;;
69334;SDS011;56477;52.742;15.242;2024-03-02T01:52:55;30.43;;;14.43;;
69334;SDS011;56477;52.742;15.242;2024-03-02T01:55:21;31.60;;;15.70;;
69334;SDS011;56477;52.742;15.242;2024-03-02T01:57:48;31.95;;;15.25;;
69334;SDS011;56477;52.742;15.242;2024-03-02T02:00:16;30.40;;;14.75;;
69334;SDS011;56477;52.742;15.242;2024-03-02T02:02:42;30.92;;;15.18;;
69334;SDS011;56477;52.742;15.242;2024-03-02T02:05:09;33.40;;;16.27;;
69334;SDS011;56477;52.742;15.242;2024-03-02T02:07:35;34.75;;;15.52;;
69334;SDS011;56477;52.742;15.242;2024-03-02T02:10:01;35.35;;;16.27;;
69334;SDS011;56477;52.742;15.242;2024-03-02T02:12:27;34.60;;;15.77;;
69334;SDS011;56477;52.742;15.242;2024-03-02T02:14:53;35.33;;;16.33;;
69334;SDS011;56477;52.742;15.242;2024-03-02T02:17:19;34.17;;;17.63;;
69334;SDS011;56477;52.742;15.242;2024-03-02T02:19:45;33.10;;;16.38;;
69334;SDS011;56477;52.742;15.242;2024-03-02T02:22:11;38.60;;;17.30;;
69334;SDS011;56477;52.742;15.242;2024-03-02T02:24:41;38.77;;;17.63;;
69334;SDS011;56477;52.742;15.242;2024-03-02T02:27:10;39.58;;;18.23;;
69334;SDS011;56477;52.742;15.242;2024-03-02T02:29:37;42.42;;;18.73;;
69334;SDS011;56477;52.742;15.242;2024-03-02T02:32:03;40.83;;;19.02;;
69334;SDS011;56477;52.742;15.242;2024-03-02T02:34:29;34.37;;;17.23;;
69334;SDS011;56477;52.742;15.242;2024-03-02T02:36:55;41.40;;;19.05;;
69334;SDS011;56477;52.742;15.242;2024-03-02T02:39:21;43.33;;;20.73;;
69334;SDS011;56477;52.742;15.242;2024-03-02T02:41:48;45.33;;;18.73;;
69334;SDS011;56477;52.742;15.242;2024-03-02T02:44:14;45.03;;;21.52;;
69334;SDS011;56477;52.742;15.242;2024-03-02T02:46:40;43.88;;;20.05;;
69334;SDS011;56477;52.742;15.242;2024-03-02T02:49:07;45.95;;;19.92;;
69334;SDS011;56477;52.742;15.242;2024-03-02T02:51:33;46.97;;;20.27;;
69334;SDS011;56477;52.742;15.242;2024-03-02T02:53:59;46.22;;;20.80;;
69334;SDS011;56477;52.742;15.242;2024-03-02T02:56:25;44.08;;;21.48;;
69334;SDS011;56477;52.742;15.242;2024-03-02T02:58:51;47.42;;;21.10;;
69334;SDS011;56477;52.742;15.242;2024-03-02T03:01:16;40.70;;;21.23;;
69334;SDS011;56477;52.742;15.242;2024-03-02T03:03:43;50.40;;;21.80;;
69334;SDS011;56477;52.742;15.242;2024-03-02T03:06:10;47.22;;;22.45;;
69334;SDS011;56477;52.742;15.242;2024-03-02T03:08:36;50.25;;;22.67;;
69334;SDS011;56477;52.742;15.242;2024-03-02T03:11:02;46.10;;;22.50;;
69334;SDS011;56477;52.742;15.242;2024-03-02T03:13:28;45.78;;;21.85;;
69334;SDS011;56477;52.742;15.242;2024-03-02T03:15:54;49.20;;;23.13;;
69334;SDS011;56477;52.742;15.242;2024-03-02T03:18:20;50.08;;;22.50;;
69334;SDS011;56477;52.742;15.242;2024-03-02T03:20:46;51.77;;;23.03;;
69334;SDS011;56477;52.742;15.242;2024-03-02T03:23:12;54.65;;;24.08;;
69334;SDS011;56477;52.742;15.242;2024-03-02T03:25:45;54.33;;;24.00;;
69334;SDS011;56477;52.742;15.242;2024-03-02T03:28:11;56.60;;;25.40;;
69334;SDS011;56477;52.742;15.242;2024-03-02T03:30:37;56.78;;;26.63;;
69334;SDS011;56477;52.742;15.242;2024-03-02T03:33:04;59.80;;;27.27;;
69334;SDS011;56477;52.742;15.242;2024-03-02T03:35:31;58.63;;;26.77;;
69334;SDS011;56477;52.742;15.242;2024-03-02T03:37:58;58.63;;;26.10;;
69334;SDS011;56477;52.742;15.242;2024-03-02T03:40:24;62.35;;;27.13;;
69334;SDS011;56477;52.742;15.242;2024-03-02T03:42:50;59.78;;;27.33;;
69334;SDS011;56477;52.742;15.242;2024-03-02T03:45:17;58.50;;;27.45;;
69334;SDS011;56477;52.742;15.242;2024-03-02T03:47:43;61.10;;;28.38;;
69334;SDS011;56477;52.742;15.242;2024-03-02T03:50:08;60.23;;;27.70;;
69334;SDS011;56477;52.742;15.242;2024-03-02T03:52:35;62.65;;;28.25;;
69334;SDS011;56477;52.742;15.242;2024-03-02T03:55:01;65.30;;;29.17;;
69334;SDS011;56477;52.742;15.242;2024-03-02T03:57:27;65.68;;;29.30;;
69334;SDS011;56477;52.742;15.242;2024-03-02T03:59:53;61.87;;;29.77;;
69334;SDS011;56477;52.742;15.242;2024-03-02T04:02:19;64.93;;;29.13;;
69334;SDS011;56477;52.742;15.242;2024-03-02T04:04:45;66.15;;;30.25;;
69334;SDS011;56477;52.742;15.242;2024-03-02T04:07:11;68.72;;;30.38;;
69334;SDS011;56477;52.742;15.242;2024-03-02T04:09:37;63.87;;;29.63;;
69334;SDS011;56477;52.742;15.242;2024-03-02T04:12:03;68.32;;;29.38;;
69334;SDS011;56477;52.742;15.242;2024-03-02T04:14:29;65.07;;;30.65;;
69334;SDS011;56477;52.742;15.242;2024-03-02T04:16:55;67.18;;;29.83;;
69334;SDS011;56477;52.742;15.242;2024-03-02T04:19:21;68.83;;;29.97;;
69334;SDS011;56477;52.742;15.242;2024-03-02T04:21:47;70.93;;;31.23;;
69334;SDS011;56477;52.742;15.242;2024-03-02T04:24:13;73.28;;;30.60;;
69334;SDS011;56477;52.742;15.242;2024-03-02T04:26:39;66.50;;;30.17;;
69334;SDS011;56477;52.742;15.242;2024-03-02T04:29:05;68.80;;;32.42;;
69334;SDS011;56477;52.742;15.242;2024-03-02T04:31:31;67.72;;;30.85;;
69334;SDS011;56477;52.742;15.242;2024-03-02T04:33:56;77.90;;;32.93;;
69334;SDS011;56477;52.742;15.242;2024-03-02T04:36:22;70.55;;;33.55;;
69334;SDS011;56477;52.742;15.242;2024-03-02T04:38:49;71.55;;;31.35;;
69334;SDS011;56477;52.742;15.242;2024-03-02T04:41:15;75.70;;;33.50;;
69334;SDS011;56477;52.742;15.242;2024-03-02T04:43:41;75.63;;;32.60;;
69334;SDS011;56477;52.742;15.242;2024-03-02T04:46:07;76.40;;;32.92;;
69334;SDS011;56477;52.742;15.242;2024-03-02T04:48:33;73.40;;;32.65;;
69334;SDS011;56477;52.742;15.242;2024-03-02T04:50:59;74.17;;;33.50;;
69334;SDS011;56477;52.742;15.242;2024-03-02T04:53:26;74.30;;;33.63;;
69334;SDS011;56477;52.742;15.242;2024-03-02T04:55:52;79.70;;;34.67;;
69334;SDS011;56477;52.742;15.242;2024-03-02T04:58:29;75.65;;;33.85;;
69334;SDS011;56477;52.742;15.242;2024-03-02T05:00:56;81.72;;;34.33;;
69334;SDS011;56477;52.742;15.242;2024-03-02T05:03:22;78.70;;;34.77;;
69334;SDS011;56477;52.742;15.242;2024-03-02T05:05:48;75.78;;;34.38;;
69334;SDS011;56477;52.742;15.242;2024-03-02T05:08:13;81.18;;;34.13;;
69334;SDS011;56477;52.742;15.242;2024-03-02T05:10:41;73.43;;;34.03;;
69334;SDS011;56477;52.742;15.242;2024-03-02T05:13:07;73.35;;;34.25;;
69334;SDS011;56477;52.742;15.242;2024-03-02T05:15:33;78.28;;;34.38;;
69334;SDS011;56477;52.742;15.242;2024-03-02T05:17:59;80.10;;;35.10;;
69334;SDS011;56477;52.742;15.242;2024-03-02T05:20:25;82.65;;;36.15;;
69334;SDS011;56477;52.742;15.242;2024-03-02T05:22:51;77.97;;;36.38;;
69334;SDS011;56477;52.742;15.242;2024-03-02T05:25:18;84.20;;;36.70;;
69334;SDS011;56477;52.742;15.242;2024-03-02T05:27:43;81.33;;;35.73;;
69334;SDS011;56477;52.742;15.242;2024-03-02T05:30:10;78.13;;;35.70;;
69334;SDS011;56477;52.742;15.242;2024-03-02T05:32:36;87.63;;;37.35;;
69334;SDS011;56477;52.742;15.242;2024-03-02T05:35:03;80.25;;;34.25;;
69334;SDS011;56477;52.742;15.242;2024-03-02T05:37:30;85.97;;;36.53;;
69334;SDS011;56477;52.742;15.242;2024-03-02T05:39:56;85.43;;;36.80;;
69334;SDS011;56477;52.742;15.242;2024-03-02T05:42:22;85.28;;;37.67;;
69334;SDS011;56477;52.742;15.242;2024-03-02T05:44:48;85.43;;;36.55;;
69334;SDS011;56477;52.742;15.242;2024-03-02T05:47:13;82.50;;;37.30;;
69334;SDS011;56477;52.742;15.242;2024-03-02T05:49:40;82.68;;;36.67;;
69334;SDS011;56477;52.742;15.242;2024-03-02T05:52:05;81.33;;;38.80;;
69334;SDS011;56477;52.742;15.242;2024-03-02T05:54:32;83.20;;;37.20;;
69334;SDS011;56477;52.742;15.242;2024-03-02T05:56:58;87.10;;;37.47;;
69334;SDS011;56477;52.742;15.242;2024-03-02T05:59:42;87.25;;;38.58;;
69334;SDS011;56477;52.742;15.242;2024-03-02T06:02:09;85.80;;;37.83;;
69334;SDS011;56477;52.742;15.242;2024-03-02T06:04:35;87.57;;;37.95;;
69334;SDS011;56477;52.742;15.242;2024-03-02T06:07:01;89.72;;;39.10;;
69334;SDS011;56477;52.742;15.242;2024-03-02T06:09:27;91.63;;;39.13;;
69334;SDS011;56477;52.742;15.242;2024-03-02T06:11:52;85.77;;;37.10;;
69334;SDS011;56477;52.742;15.242;2024-03-02T06:14:19;86.57;;;37.88;;
69334;SDS011;56477;52.742;15.242;2024-03-02T06:16:44;90.53;;;39.40;;
69334;SDS011;56477;52.742;15.242;2024-03-02T06:19:11;88.07;;;37.67;;
69334;SDS011;56477;52.742;15.242;2024-03-02T06:21:36;90.03;;;38.97;;
69334;SDS011;56477;52.742;15.242;2024-03-02T06:24:02;89.55;;;38.80;;
69334;SDS011;56477;52.742;15.242;2024-03-02T06:26:28;89.78;;;39.47;;
69334;SDS011;56477;52.742;15.242;2024-03-02T06:28:55;91.10;;;38.83;;
69334;SDS011;56477;52.742;15.242;2024-03-02T06:31:21;86.35;;;38.22;;
69334;SDS011;56477;52.742;15.242;2024-03-02T06:33:47;84.97;;;38.83;;
69334;SDS011;56477;52.742;15.242;2024-03-02T06:36:13;88.60;;;37.90;;
69334;SDS011;56477;52.742;15.242;2024-03-02T06:38:41;87.27;;;38.07;;
69334;SDS011;56477;52.742;15.242;2024-03-02T06:41:07;81.35;;;37.75;;
69334;SDS011;56477;52.742;15.242;2024-03-02T06:43:33;89.07;;;38.42;;
69334;SDS011;56477;52.742;15.242;2024-03-02T06:45:59;90.80;;;37.70;;
69334;SDS011;56477;52.742;15.242;2024-03-02T06:48:25;92.82;;;40.10;;
69334;SDS011;56477;52.742;15.242;2024-03-02T06:50:50;82.18;;;37.30;;
69334;SDS011;56477;52.742;15.242;2024-03-02T06:53:17;94.40;;;39.57;;
69334;SDS011;56477;52.742;15.242;2024-03-02T06:55:44;86.75;;;36.55;;
69334;SDS011;56477;52.742;15.242;2024-03-02T06:58:11;90.28;;;39.30;;
69334;SDS011;56477;52.742;15.242;2024-03-02T07:00:38;88.88;;;39.20;;
69334;SDS011;56477;52.742;15.242;2024-03-02T07:03:04;88.60;;;38.00;;
69334;SDS011;56477;52.742;15.242;2024-03-02T07:05:30;89.80;;;38.93;;
69334;SDS011;56477;52.742;15.242;2024-03-02T07:07:56;91.63;;;39.80;;
69334;SDS011;56477;52.742;15.242;2024-03-02T07:10:21;81.70;;;33.40;;
69334;SDS011;56477;52.742;15.242;2024-03-02T07:12:48;89.20;;;39.80;;
69334;SDS011;56477;52.742;15.242;2024-03-02T07:15:14;91.13;;;39.55;;
69334;SDS011;56477;52.742;15.242;2024-03-02T07:17:58;86.35;;;38.50;;
69334;SDS011;56477;52.742;15.242;2024-03-02T07:20:24;82.47;;;37.37;;
69334;SDS011;56477;52.742;15.242;2024-03-02T07:22:50;90.30;;;39.33;;
69334;SDS011;56477;52.742;15.242;2024-03-02T07:25:16;86.10;;;36.80;;
69334;SDS011;56477;52.742;15.242;2024-03-02T07:27:42;87.68;;;37.55;;
69334;SDS011;56477;52.742;15.242;2024-03-02T07:30:09;85.13;;;36.58;;
69334;SDS011;56477;52.742;15.242;2024-03-02T07:32:37;85.93;;;37.78;;
69334;SDS011;56477;52.742;15.242;2024-03-02T07:35:02;86.10;;;37.63;;
69334;SDS011;56477;52.742;15.242;2024-03-02T07:37:29;84.30;;;36.70;;
69334;SDS011;56477;52.742;15.242;2024-03-02T07:39:55;85.90;;;37.65;;
69334;SDS011;56477;52.742;15.242;2024-03-02T07:42:21;88.13;;;37.65;;
69334;SDS011;56477;52.742;15.242;2024-03-02T07:44:47;89.00;;;38.90;;
69334;SDS011;56477;52.742;15.242;2024-03-02T07:47:13;86.30;;;39.15;;
69334;SDS011;56477;52.742;15.242;2024-03-02T07:49:39;81.85;;;37.33;;
69334;SDS011;56477;52.742;15.242;2024-03-02T07:52:05;83.03;;;36.53;;
69334;SDS011;56477;52.742;15.242;2024-03-02T07:54:30;83.80;;;38.33;;
69334;SDS011;56477;52.742;15.242;2024-03-02T07:56:57;85.85;;;37.60;;
69334;SDS011;56477;52.742;15.242;2024-03-02T07:59:23;86.18;;;37.08;;
69334;SDS011;56477;52.742;15.242;2024-03-02T08:01:49;91.20;;;38.58;;
69334;SDS011;56477;52.742;15.242;2024-03-02T08:04:17;83.87;;;37.50;;
69334;SDS011;56477;52.742;15.242;2024-03-02T08:06:44;86.10;;;37.65;;
69334;SDS011;56477;52.742;15.242;2024-03-02T08:09:10;81.35;;;37.63;;
69334;SDS011;56477;52.742;15.242;2024-03-02T08:11:37;88.13;;;36.90;;
69334;SDS011;56477;52.742;15.242;2024-03-02T08:14:02;87.57;;;37.07;;
69334;SDS011;56477;52.742;15.242;2024-03-02T08:16:29;87.45;;;38.10;;
69334;SDS011;56477;52.742;15.242;2024-03-02T08:18:55;78.93;;;35.60;;
69334;SDS011;56477;52.742;15.242;2024-03-02T08:21:23;81.70;;;36.55;;
69334;SDS011;56477;52.742;15.242;2024-03-02T08:23:50;82.40;;;37.30;;
69334;SDS011;56477;52.742;15.242;2024-03-02T08:26:16;85.53;;;35.47;;
69334;SDS011;56477;52.742;15.242;2024-03-02T08:28:42;85.50;;;37.78;;
69334;SDS011;56477;52.742;15.242;2024-03-02T08:31:11;82.63;;;36.92;;
69334;SDS011;56477;52.742;15.242;2024-03-02T08:33:37;84.93;;;36.30;;
69334;SDS011;56477;52.742;15.242;2024-03-02T08:36:03;82.45;;;36.00;;
69334;SDS011;56477;52.742;15.242;2024-03-02T08:38:29;84.50;;;37.03;;
69334;SDS011;56477;52.742;15.242;2024-03-02T08:40:55;85.47;;;37.45;;
69334;SDS011;56477;52.742;15.242;2024-03-02T08:43:21;83.03;;;37.80;;
69334;SDS011;56477;52.742;15.242;2024-03-02T08:45:48;84.07;;;35.30;;
69334;SDS011;56477;52.742;15.242;2024-03-02T08:48:14;87.05;;;37.42;;
69334;SDS011;56477;52.742;15.242;2024-03-02T08:50:40;86.22;;;35.80;;
69334;SDS011;56477;52.742;15.242;2024-03-02T08:53:06;81.70;;;36.90;;
69334;SDS011;56477;52.742;15.242;2024-03-02T08:55:32;86.17;;;36.80;;
69334;SDS011;56477;52.742;15.242;2024-03-02T08:57:59;81.30;;;35.65;;
69334;SDS011;56477;52.742;15.242;2024-03-02T09:00:25;87.40;;;38.50;;
69334;SDS011;56477;52.742;15.242;2024-03-02T09:02:51;84.23;;;36.97;;
69334;SDS011;56477;52.742;15.242;2024-03-02T09:05:17;74.93;;;35.58;;
69334;SDS011;56477;52.742;15.242;2024-03-02T09:07:43;81.90;;;36.22;;
69334;SDS011;56477;52.742;15.242;2024-03-02T09:10:09;80.67;;;35.20;;
69334;SDS011;56477;52.742;15.242;2024-03-02T09:12:35;85.63;;;36.92;;
69334;SDS011;56477;52.742;15.242;2024-03-02T09:15:03;77.93;;;36.15;;
69334;SDS011;56477;52.742;15.242;2024-03-02T09:17:29;79.40;;;35.95;;
69334;SDS011;56477;52.742;15.242;2024-03-02T09:19:55;76.65;;;38.15;;
69334;SDS011;56477;52.742;15.242;2024-03-02T09:22:21;80.53;;;35.47;;
69334;SDS011;56477;52.742;15.242;2024-03-02T09:24:47;80.97;;;36.60;;
69334;SDS011;56477;52.742;15.242;2024-03-02T09:27:13;78.50;;;33.97;;
69334;SDS011;56477;52.742;15.242;2024-03-02T09:29:39;87.77;;;36.93;;
69334;SDS011;56477;52.742;15.242;2024-03-02T09:32:05;86.20;;;36.92;;
69334;SDS011;56477;52.742;15.242;2024-03-02T09:34:32;83.55;;;36.72;;
69334;SDS011;56477;52.742;15.242;2024-03-02T09:36:57;86.07;;;37.43;;
69334;SDS011;56477;52.742;15.242;2024-03-02T09:39:24;86.05;;;37.78;;
69334;SDS011;56477;52.742;15.242;2024-03-02T09:41:52;79.50;;;36.60;;
69334;SDS011;56477;52.742;15.242;2024-03-02T09:44:19;81.70;;;36.92;;
69334;SDS011;56477;52.742;15.242;2024-03-02T09:46:48;84.80;;;36.60;;
69334;SDS011;56477;52.742;15.242;2024-03-02T09:49:14;82.85;;;37.88;;
69334;SDS011;56477;52.742;15.242;2024-03-02T09:51:40;81.68;;;36.65;;
69334;SDS011;56477;52.742;15.242;2024-03-02T09:54:12;88.82;;;37.25;;
69334;SDS011;56477;52.742;15.242;2024-03-02T09:56:38;81.67;;;36.67;;
69334;SDS011;56477;52.742;15.242;2024-03-02T09:59:05;84.30;;;36.90;;
69334;SDS011;56477;52.742;15.242;2024-03-02T10:01:31;85.82;;;37.35;;
69334;SDS011;56477;52.742;15.242;2024-03-02T10:04:00;86.53;;;36.95;;
69334;SDS011;56477;52.742;15.242;2024-03-02T10:06:26;86.87;;;38.63;;
69334;SDS011;56477;52.742;15.242;2024-03-02T10:08:54;81.47;;;36.72;;
69334;SDS011;56477;52.742;15.242;2024-03-02T10:11:30;82.47;;;36.65;;
69334;SDS011;56477;52.742;15.242;2024-03-02T10:14:12;83.00;;;36.08;;
69334;SDS011;56477;52.742;15.242;2024-03-02T10:16:40;82.50;;;37.15;;
69334;SDS011;56477;52.742;15.242;2024-03-02T10:19:16;85.10;;;35.57;;
69334;SDS011;56477;52.742;15.242;2024-03-02T10:21:46;79.20;;;35.95;;
69334;SDS011;56477;52.742;15.242;2024-03-02T10:24:13;84.88;;;37.63;;
69334;SDS011;56477;52.742;15.242;2024-03-02T10:26:39;84.90;;;36.28;;
69334;SDS011;56477;52.742;15.242;2024-03-02T10:29:05;87.07;;;37.43;;
69334;SDS011;56477;52.742;15.242;2024-03-02T10:31:30;85.22;;;36.90;;
69334;SDS011;56477;52.742;15.242;2024-03-02T10:33:57;84.72;;;36.67;;
69334;SDS011;56477;52.742;15.242;2024-03-02T10:36:23;89.47;;;39.00;;
69334;SDS011;56477;52.742;15.242;2024-03-02T10:38:51;82.13;;;38.13;;
69334;SDS011;56477;52.742;15.242;2024-03-02T10:41:23;82.78;;;37.78;;
69334;SDS011;56477;52.742;15.242;2024-03-02T10:43:53;86.53;;;38.95;;
69334;SDS011;56477;52.742;15.242;2024-03-02T10:46:27;82.88;;;38.08;;
69334;SDS011;56477;52.742;15.242;2024-03-02T10:48:57;80.75;;;36.53;;
69334;SDS011;56477;52.742;15.242;2024-03-02T10:51:25;79.10;;;36.43;;
69334;SDS011;56477;52.742;15.242;2024-03-02T10:53:52;83.82;;;37.03;;
69334;SDS011;56477;52.742;15.242;2024-03-02T10:56:21;76.28;;;35.70;;
69334;SDS011;56477;52.742;15.242;2024-03-02T10:58:55;83.20;;;36.53;;
69334;SDS011;56477;52.742;15.242;2024-03-02T11:01:43;78.55;;;36.30;;
69334;SDS011;56477;52.742;15.242;2024-03-02T11:04:13;75.40;;;34.37;;
69334;SDS011;56477;52.742;15.242;2024-03-02T11:06:43;81.18;;;35.75;;
69334;SDS011;56477;52.742;15.242;2024-03-02T11:09:14;78.93;;;36.80;;
69334;SDS011;56477;52.742;15.242;2024-03-02T11:11:44;81.07;;;36.97;;
69334;SDS011;56477;52.742;15.242;2024-03-02T11:14:14;83.63;;;36.85;;
69334;SDS011;56477;52.742;15.242;2024-03-02T11:16:44;75.00;;;34.87;;
69334;SDS011;56477;52.742;15.242;2024-03-02T11:19:12;77.32;;;35.28;;
69334;SDS011;56477;52.742;15.242;2024-03-02T11:21:39;77.63;;;33.95;;
69334;SDS011;56477;52.742;15.242;2024-03-02T11:26:47;78.97;;;35.90;;
69334;SDS011;56477;52.742;15.242;2024-03-02T11:32:02;77.35;;;33.80;;
69334;SDS011;56477;52.742;15.242;2024-03-02T11:34:35;74.43;;;33.67;;
69334;SDS011;56477;52.742;15.242;2024-03-02T11:37:02;78.13;;;35.15;;
69334;SDS011;56477;52.742;15.242;2024-03-02T11:39:29;78.97;;;36.35;;
69334;SDS011;56477;52.742;15.242;2024-03-02T11:41:55;76.23;;;35.00;;
69334;SDS011;56477;52.742;15.242;2024-03-02T11:44:26;77.28;;;34.47;;
69334;SDS011;56477;52.742;15.242;2024-03-02T11:47:02;76.45;;;35.03;;
69334;SDS011;56477;52.742;15.242;2024-03-02T11:49:44;74.10;;;34.10;;
69334;SDS011;56477;52.742;15.242;2024-03-02T11:52:20;78.10;;;35.53;;
69334;SDS011;56477;52.742;15.242;2024-03-02T11:54:46;72.93;;;33.70;;
69334;SDS011;56477;52.742;15.242;2024-03-02T11:57:20;79.30;;;35.15;;
69334;SDS011;56477;52.742;15.242;2024-03-02T11:59:51;74.20;;;32.80;;
69334;SDS011;56477;52.742;15.242;2024-03-02T12:02:18;70.50;;;33.97;;
69334;SDS011;56477;52.742;15.242;2024-03-02T12:04:46;74.55;;;34.15;;
69334;SDS011;56477;52.742;15.242;2024-03-02T12:07:20;72.70;;;33.67;;
69334;SDS011;56477;52.742;15.242;2024-03-02T12:09:48;71.15;;;33.70;;
69334;SDS011;56477;52.742;15.242;2024-03-02T12:12:15;74.55;;;33.30;;
69334;SDS011;56477;52.742;15.242;2024-03-02T12:14:49;70.45;;;34.03;;
69334;SDS011;56477;52.742;15.242;2024-03-02T12:17:16;70.93;;;32.88;;
69334;SDS011;56477;52.742;15.242;2024-03-02T12:19:42;67.50;;;29.90;;
69334;SDS011;56477;52.742;15.242;2024-03-02T12:22:09;72.57;;;33.97;;
69334;SDS011;56477;52.742;15.242;2024-03-02T12:24:35;75.93;;;35.53;;
69334;SDS011;56477;52.742;15.242;2024-03-02T12:27:03;71.18;;;32.72;;
69334;SDS011;56477;52.742;15.242;2024-03-02T12:29:30;74.63;;;34.63;;
69334;SDS011;56477;52.742;15.242;2024-03-02T12:31:56;63.73;;;30.63;;
69334;SDS011;56477;52.742;15.242;2024-03-02T12:34:22;69.53;;;32.30;;
69334;SDS011;56477;52.742;15.242;2024-03-02T12:36:48;65.95;;;31.88;;
69334;SDS011;56477;52.742;15.242;2024-03-02T12:39:18;68.13;;;32.17;;
69334;SDS011;56477;52.742;15.242;2024-03-02T12:41:45;69.60;;;31.65;;
69334;SDS011;56477;52.742;15.242;2024-03-02T12:44:12;67.30;;;32.90;;
69334;SDS011;56477;52.742;15.242;2024-03-02T12:46:37;70.28;;;32.88;;
69334;SDS011;56477;52.742;15.242;2024-03-02T12:49:07;63.47;;;30.23;;
69334;SDS011;56477;52.742;15.242;2024-03-02T12:51:35;68.57;;;32.22;;
69334;SDS011;56477;52.742;15.242;2024-03-02T12:54:02;61.88;;;30.10;;
69334;SDS011;56477;52.742;15.242;2024-03-02T12:56:28;64.30;;;31.10;;
69334;SDS011;56477;52.742;15.242;2024-03-02T12:58:55;63.72;;;30.00;;
69334;SDS011;56477;52.742;15.242;2024-03-02T13:01:21;62.73;;;30.73;;
69334;SDS011;56477;52.742;15.242;2024-03-02T13:03:50;65.10;;;31.90;;
69334;SDS011;56477;52.742;15.242;2024-03-02T13:06:17;59.88;;;29.20;;
69334;SDS011;56477;52.742;15.242;2024-03-02T13:08:45;62.20;;;30.67;;
69334;SDS011;56477;52.742;15.242;2024-03-02T13:11:11;66.30;;;30.38;;
69334;SDS011;56477;52.742;15.242;2024-03-02T13:13:38;58.83;;;29.17;;
69334;SDS011;56477;52.742;15.242;2024-03-02T13:16:07;59.60;;;29.65;;
69334;SDS011;56477;52.742;15.242;2024-03-02T13:18:38;65.28;;;30.75;;
69334;SDS011;56477;52.742;15.242;2024-03-02T13:21:04;57.55;;;28.27;;
69334;SDS011;56477;52.742;15.242;2024-03-02T13:23:31;61.55;;;28.70;;
69334;SDS011;56477;52.742;15.242;2024-03-02T13:25:57;60.17;;;29.20;;
69334;SDS011;56477;52.742;15.242;2024-03-02T13:28:26;66.30;;;30.05;;
69334;SDS011;56477;52.742;15.242;2024-03-02T13:30:52;60.42;;;30.58;;
69334;SDS011;56477;52.742;15.242;2024-03-02T13:33:18;60.43;;;30.30;;
69334;SDS011;56477;52.742;15.242;2024-03-02T13:35:50;64.85;;;30.80;;
69334;SDS011;56477;52.742;15.242;2024-03-02T13:38:18;58.78;;;28.30;;
69334;SDS011;56477;52.742;15.242;2024-03-02T13:40:45;60.47;;;29.60;;
69334;SDS011;56477;52.742;15.242;2024-03-02T13:43:11;55.72;;;26.98;;
69334;SDS011;56477;52.742;15.242;2024-03-02T13:45:38;59.97;;;28.50;;
69334;SDS011;56477;52.742;15.242;2024-03-02T13:48:04;61.45;;;28.25;;
69334;SDS011;56477;52.742;15.242;2024-03-02T13:50:31;58.38;;;28.27;;
69334;SDS011;56477;52.742;15.242;2024-03-02T13:52:57;59.67;;;28.60;;
69334;SDS011;56477;52.742;15.242;2024-03-02T13:55:23;53.03;;;27.23;;
69334;SDS011;56477;52.742;15.242;2024-03-02T13:57:49;57.35;;;27.08;;
69334;SDS011;56477;52.742;15.242;2024-03-02T14:00:16;54.22;;;27.42;;
69334;SDS011;56477;52.742;15.242;2024-03-02T14:02:43;52.33;;;27.42;;
69334;SDS011;56477;52.742;15.242;2024-03-02T14:05:10;55.65;;;26.90;;
69334;SDS011;56477;52.742;15.242;2024-03-02T14:07:37;54.73;;;26.67;;
69334;SDS011;56477;52.742;15.242;2024-03-02T14:10:04;58.38;;;26.77;;
69334;SDS011;56477;52.742;15.242;2024-03-02T14:12:30;52.60;;;26.85;;
69334;SDS011;56477;52.742;15.242;2024-03-02T14:14:56;59.67;;;28.98;;
69334;SDS011;56477;52.742;15.242;2024-03-02T14:17:24;60.77;;;28.57;;
69334;SDS011;56477;52.742;15.242;2024-03-02T14:19:50;56.00;;;26.70;;
69334;SDS011;56477;52.742;15.242;2024-03-02T14:22:19;56.92;;;27.02;;